createdAt,value
2022-07-26T00:02:31.682Z,96758.03
2022-07-26T00:05:08.978Z,96754.00
2022-07-26T00:07:39.734Z,96753.06
2022-07-26T00:10:08.395Z,96759.13
2022-07-26T00:12:42.791Z,96768.34
2022-07-26T00:15:21.115Z,96769.91
2022-07-26T00:17:51.866Z,96779.69
2022-07-26T00:20:20.184Z,96788.22
2022-07-26T00:22:50.475Z,96782.59
2022-07-26T00:25:21.278Z,96792.50
2022-07-26T00:27:53.782Z,96784.28
2022-07-26T00:30:23.968Z,96796.22
2022-07-26T00:32:52.975Z,96791.44
2022-07-26T00:35:24.121Z,96791.38
2022-07-26T00:37:58.086Z,96795.44
2022-07-26T00:40:45.260Z,96802.50
2022-07-26T00:43:14.876Z,96788.06
2022-07-26T00:45:44.916Z,96797.06
2022-07-26T00:48:15.862Z,96800.00
2022-07-26T00:50:49.804Z,96808.91
2022-07-26T00:53:21.374Z,96800.34
2022-07-26T00:55:53.936Z,96799.81
2022-07-26T00:58:25.192Z,96801.97
2022-07-26T01:00:54.489Z,96812.19
2022-07-26T01:03:36.208Z,96804.63
2022-07-26T01:06:10.433Z,96811.09
2022-07-26T01:08:45.375Z,96802.47
2022-07-26T01:11:15.015Z,96807.56
2022-07-26T01:14:00.676Z,96800.00
2022-07-26T01:16:29.047Z,96792.34
2022-07-26T01:18:58.985Z,96799.75
2022-07-26T01:21:34.573Z,96796.78
2022-07-26T01:24:03.525Z,96801.34
2022-07-26T01:26:35.716Z,96802.88
2022-07-26T01:29:03.929Z,96796.44
2022-07-26T01:31:34.613Z,96798.00
2022-07-26T01:34:02.826Z,96797.22
2022-07-26T01:36:34.624Z,96797.19
2022-07-26T01:39:02.880Z,96803.63
2022-07-26T01:41:41.546Z,96793.91
2022-07-26T01:44:10.046Z,96789.94
2022-07-26T01:46:40.141Z,96788.03
2022-07-26T01:49:09.415Z,96794.72
2022-07-26T01:51:41.542Z,96790.91
2022-07-26T01:54:12.922Z,96790.09
2022-07-26T01:56:41.471Z,96782.50
2022-07-26T01:59:12.535Z,96788.56
2022-07-26T02:01:40.790Z,96788.13
2022-07-26T02:04:31.292Z,96789.22
2022-07-26T02:07:05.632Z,96787.31
2022-07-26T02:09:43.839Z,96782.19
2022-07-26T02:12:12.287Z,96773.84
2022-07-26T02:14:40.523Z,96785.16
2022-07-26T02:17:08.685Z,96787.00
2022-07-26T02:19:39.162Z,96780.16
2022-07-26T02:22:10.615Z,96776.72
2022-07-26T02:24:40.752Z,96774.56
2022-07-26T02:30:50.582Z,96775.94
2022-07-26T02:33:19.864Z,96780.19
2022-07-26T02:35:50.575Z,96784.00
2022-07-26T02:38:25.069Z,96789.03
2022-07-26T02:41:03.048Z,96788.31
2022-07-26T02:43:32.542Z,96787.38
2022-07-26T02:46:02.258Z,96781.16
2022-07-26T02:48:31.310Z,96790.91
2022-07-26T02:50:59.880Z,96791.09
2022-07-26T02:53:31.782Z,96795.41
2022-07-26T02:56:04.218Z,96793.44
2022-07-26T02:58:34.202Z,96798.63
2022-07-26T03:01:02.504Z,96791.72
2022-07-26T03:03:32.661Z,96794.41
2022-07-26T03:06:05.276Z,96789.09
2022-07-26T03:08:34.949Z,96792.19
2022-07-26T03:11:03.299Z,96801.88
2022-07-26T03:13:34.157Z,96791.44
2022-07-26T03:16:05.282Z,96805.50
2022-07-26T03:18:33.529Z,96808.31
2022-07-26T03:21:01.860Z,96799.59
2022-07-26T03:23:33.662Z,96803.97
2022-07-26T03:26:06.151Z,96808.53
2022-07-26T03:28:35.105Z,96820.47
2022-07-26T03:31:08.434Z,96812.63
2022-07-26T03:33:36.884Z,96808.03
2022-07-26T03:36:11.660Z,96807.28
2022-07-26T03:38:47.544Z,96813.09
2022-07-26T03:41:22.100Z,96819.41
2022-07-26T03:43:53.403Z,96811.59
2022-07-26T03:46:21.804Z,96819.09
2022-07-26T03:48:50.178Z,96823.09
2022-07-26T03:51:18.473Z,96818.28
2022-07-26T03:53:46.762Z,96820.41
2022-07-26T03:56:33.213Z,96821.28
2022-07-26T03:59:02.780Z,96817.66
2022-07-26T04:01:31.744Z,96823.97
2022-07-26T04:04:04.056Z,96834.84
2022-07-26T04:06:35.438Z,96831.59
2022-07-26T04:09:12.920Z,96833.28
2022-07-26T04:11:42.877Z,96832.97
2022-07-26T04:14:15.271Z,96835.97
2022-07-26T04:16:47.613Z,96827.22
2022-07-26T04:19:16.365Z,96828.91
2022-07-26T04:21:46.933Z,96833.53
2022-07-26T04:24:15.184Z,96825.47
2022-07-26T04:26:52.981Z,96827.13
2022-07-26T04:29:21.397Z,96827.44
2022-07-26T04:31:49.827Z,96827.22
2022-07-26T04:34:21.133Z,96830.69
2022-07-26T04:36:49.611Z,96832.88
2022-07-26T04:39:18.920Z,96843.91
2022-07-26T04:41:51.544Z,96832.81
2022-07-26T04:44:25.602Z,96845.53
2022-07-26T04:46:54.899Z,96848.25
2022-07-26T04:49:26.112Z,96854.75
2022-07-26T04:51:59.341Z,96857.19
2022-07-26T04:54:28.033Z,96856.88
2022-07-26T04:56:57.858Z,96855.88
2022-07-26T04:59:26.204Z,96854.00
2022-07-26T05:01:54.821Z,96856.28
2022-07-26T05:04:24.987Z,96862.25
2022-07-26T05:06:53.505Z,96854.44
2022-07-26T05:09:26.716Z,96855.97
2022-07-26T05:11:55.107Z,96859.53
2022-07-26T05:14:30.957Z,96856.00
2022-07-26T05:17:09.002Z,96859.22
2022-07-26T05:19:49.245Z,96862.22
2022-07-26T05:22:21.143Z,96871.34
2022-07-26T05:24:58.140Z,96868.44
2022-07-26T05:27:33.829Z,96865.47
2022-07-26T05:30:07.521Z,96859.63
2022-07-26T05:32:44.452Z,96858.38
2022-07-26T05:35:14.651Z,96853.91
2022-07-26T05:37:49.464Z,96854.19
2022-07-26T05:40:19.673Z,96854.50
2022-07-26T05:42:48.029Z,96849.44
2022-07-26T05:45:23.257Z,96856.31
2022-07-26T05:47:53.095Z,96850.53
2022-07-26T05:50:24.502Z,96856.22
2022-07-26T05:52:52.869Z,96856.97
2022-07-26T05:55:29.711Z,96859.53
2022-07-26T05:58:01.256Z,96858.69
2022-07-26T06:00:34.057Z,96858.69
2022-07-26T06:03:22.175Z,96861.06
2022-07-26T06:05:53.232Z,96860.19
2022-07-26T06:08:27.486Z,96857.63
2022-07-26T06:10:56.163Z,96853.88
2022-07-26T06:13:26.848Z,96860.38
2022-07-26T06:16:05.028Z,96851.31
2022-07-26T06:18:42.928Z,96858.13
2022-07-26T06:21:11.557Z,96864.94
2022-07-26T06:23:43.760Z,96863.06
2022-07-26T06:26:18.078Z,96867.31
2022-07-26T06:28:47.129Z,96868.66
2022-07-26T06:31:17.008Z,96869.28
2022-07-26T06:33:47.143Z,96856.94
2022-07-26T06:36:15.509Z,96855.88
2022-07-26T06:38:43.894Z,96855.66
2022-07-26T06:41:13.473Z,96858.09
2022-07-26T06:43:44.526Z,96851.47
2022-07-26T06:46:17.944Z,96859.88
2022-07-26T06:48:47.596Z,96861.47
2022-07-26T06:51:22.452Z,96848.84
2022-07-26T06:53:55.993Z,96858.81
2022-07-26T06:56:29.298Z,96853.16
2022-07-26T06:58:57.664Z,96859.06
2022-07-26T07:01:59.303Z,96871.72
2022-07-26T07:04:16.248Z,96866.94
2022-07-26T07:06:49.591Z,96863.41
2022-07-26T07:09:21.133Z,96868.00
2022-07-26T07:11:51.818Z,96867.19
2022-07-26T07:14:27.536Z,96874.75
2022-07-26T07:16:57.904Z,96873.41
2022-07-26T07:19:29.119Z,96876.09
2022-07-26T07:25:06.907Z,96874.66
2022-07-26T07:27:36.874Z,96874.63
2022-07-26T07:30:15.356Z,96871.97
2022-07-26T07:32:58.399Z,96874.44
2022-07-26T07:35:37.148Z,96878.47
2022-07-26T07:38:10.086Z,96876.34
2022-07-26T07:40:45.945Z,96873.09
2022-07-26T07:43:25.992Z,96870.41
2022-07-26T07:46:06.289Z,96871.78
2022-07-26T07:48:47.548Z,96872.88
2022-07-26T07:51:26.558Z,96870.72
2022-07-26T07:54:06.448Z,96864.22
2022-07-26T07:56:44.154Z,96868.81
2022-07-26T07:59:22.841Z,96862.59
2022-07-26T08:02:02.795Z,96858.78
2022-07-26T08:04:33.454Z,96862.84
2022-07-26T08:07:13.135Z,96852.84
2022-07-26T08:09:47.939Z,96854.41
2022-07-26T08:12:22.369Z,96854.66
2022-07-26T08:15:08.551Z,96865.72
2022-07-26T08:17:51.305Z,96861.75
2022-07-26T08:20:41.050Z,96859.13
2022-07-26T08:23:21.993Z,96858.22
2022-07-26T08:25:57.336Z,96853.91
2022-07-26T08:31:26.121Z,96856.06
2022-07-26T08:34:04.149Z,96865.53
2022-07-26T08:37:00.782Z,96857.44
2022-07-26T08:39:44.355Z,96846.84
2022-07-26T08:42:30.620Z,96850.19
2022-07-26T08:45:06.991Z,96847.38
2022-07-26T08:48:16.060Z,96851.16
2022-07-26T08:50:55.763Z,96855.03
2022-07-26T08:53:36.997Z,96856.38
2022-07-26T08:56:17.327Z,96856.25
2022-07-26T08:58:53.112Z,96859.31
2022-07-26T09:01:34.924Z,96861.63
2022-07-26T09:04:38.634Z,96863.59
2022-07-26T09:07:22.400Z,96865.59
2022-07-26T09:10:11.652Z,96873.56
2022-07-26T09:12:59.149Z,96871.81
2022-07-26T09:15:38.617Z,96878.75
2022-07-26T09:18:36.416Z,96873.50
2022-07-26T09:21:07.539Z,96877.41
2022-07-26T09:23:51.604Z,96882.94
2022-07-26T09:26:31.971Z,96882.72
2022-07-26T09:29:07.463Z,96883.56
2022-07-26T09:31:40.051Z,96889.25
2022-07-26T09:34:20.971Z,96883.31
2022-07-26T09:37:00.285Z,96882.66
2022-07-26T09:39:40.505Z,96886.59
2022-07-26T09:42:30.094Z,96876.38
2022-07-26T09:45:01.594Z,96875.03
2022-07-26T09:47:49.709Z,96869.09
2022-07-26T09:50:30.902Z,96871.19
2022-07-26T09:53:16.892Z,96867.53
2022-07-26T09:56:01.447Z,96858.88
2022-07-26T09:58:41.084Z,96867.34
2022-07-26T10:01:12.687Z,96864.09
2022-07-26T10:03:48.605Z,96868.31
2022-07-26T10:06:30.291Z,96851.44
2022-07-26T10:09:08.800Z,96852.66
2022-07-26T10:11:55.301Z,96853.16
2022-07-26T10:14:41.534Z,96859.03
2022-07-26T10:17:41.031Z,96854.56
2022-07-26T10:20:37.090Z,96858.47
2022-07-26T10:23:38.291Z,96849.97
2022-07-26T10:26:10.022Z,96846.78
2022-07-26T10:28:42.576Z,96844.25
2022-07-26T10:31:37.253Z,96834.06
2022-07-26T10:34:09.326Z,96846.06
2022-07-26T10:36:42.415Z,96839.97
2022-07-26T10:39:19.999Z,96834.66
2022-07-26T10:42:03.377Z,96824.75
2022-07-26T10:44:35.444Z,96832.00
2022-07-26T10:47:25.253Z,96836.16
2022-07-26T10:50:01.127Z,96841.47
2022-07-26T10:52:34.395Z,96841.56
2022-07-26T10:55:14.054Z,96843.94
2022-07-26T10:57:56.232Z,96845.19
2022-07-26T11:00:29.108Z,96839.97
2022-07-26T11:03:01.744Z,96847.53
2022-07-26T11:05:35.338Z,96841.22
2022-07-26T11:08:11.952Z,96843.84
2022-07-26T11:10:44.562Z,96844.88
2022-07-26T11:13:18.692Z,96842.25
2022-07-26T11:15:54.505Z,96842.72
2022-07-26T11:18:39.305Z,96839.72
2022-07-26T11:21:23.070Z,96836.50
2022-07-26T11:26:49.558Z,96828.25
2022-07-26T11:29:37.283Z,96828.31
2022-07-26T11:32:14.831Z,96832.59
2022-07-26T11:35:02.611Z,96834.22
2022-07-26T11:37:37.647Z,96828.31
2022-07-26T11:40:11.603Z,96824.34
2022-07-26T11:42:44.739Z,96822.00
2022-07-26T11:45:18.064Z,96823.84
2022-07-26T11:47:52.440Z,96825.81
2022-07-26T11:50:24.749Z,96820.19
2022-07-26T11:52:54.482Z,96820.31
2022-07-26T11:55:28.833Z,96815.84
2022-07-26T11:57:59.056Z,96809.31
2022-07-26T12:00:36.958Z,96819.75
2022-07-26T12:03:11.955Z,96817.72
2022-07-26T12:05:47.571Z,96816.09
2022-07-26T12:08:16.231Z,96815.91
2022-07-26T12:10:47.889Z,96822.59
2022-07-26T12:13:20.210Z,96825.25
2022-07-26T12:15:53.100Z,96816.97
2022-07-26T12:18:26.780Z,96817.13
2022-07-26T12:21:11.823Z,96821.00
2022-07-26T12:23:46.544Z,96807.47
2022-07-26T12:26:29.929Z,96804.38
2022-07-26T12:29:00.099Z,96826.28
2022-07-26T12:31:30.899Z,96822.59
2022-07-26T12:34:02.829Z,96826.41
2022-07-26T12:36:36.779Z,96821.63
2022-07-26T12:39:08.106Z,96824.50
2022-07-26T12:41:37.810Z,96817.75
2022-07-26T12:44:07.194Z,96817.63
2022-07-26T12:46:45.399Z,96813.38
2022-07-26T12:49:15.839Z,96803.38
2022-07-26T12:51:46.033Z,96792.09
2022-07-26T12:54:15.962Z,96785.59
2022-07-26T12:56:56.341Z,96794.63
2022-07-26T12:59:24.846Z,96790.38
2022-07-26T13:01:53.344Z,96787.97
2022-07-26T13:04:24.486Z,96787.56
2022-07-26T13:06:54.721Z,96791.44
2022-07-26T13:09:23.413Z,96774.94
2022-07-26T13:11:52.097Z,96775.81
2022-07-26T13:14:20.621Z,96786.38
2022-07-26T13:16:50.331Z,96776.03
2022-07-26T13:19:22.470Z,96782.88
2022-07-26T13:21:53.091Z,96777.97
2022-07-26T13:24:31.022Z,96796.75
2022-07-26T13:27:06.742Z,96784.97
2022-07-26T13:29:45.506Z,96788.72
2022-07-26T13:32:16.918Z,96782.59
2022-07-26T13:34:53.116Z,96783.06
2022-07-26T13:37:24.152Z,96775.41
2022-07-26T13:39:57.308Z,96768.91
2022-07-26T13:42:32.678Z,96774.09
2022-07-26T13:45:09.664Z,96778.72
2022-07-26T13:50:42.517Z,96774.03
2022-07-26T13:53:27.857Z,96777.13
2022-07-26T13:56:13.459Z,96763.66
2022-07-26T13:59:02.183Z,96764.69
2022-07-26T14:01:51.397Z,96774.25
2022-07-26T14:04:37.446Z,96776.91
2022-07-26T14:10:14.446Z,96775.91
2022-07-26T14:15:40.713Z,96779.22
2022-07-26T14:21:19.152Z,96774.19
2022-07-26T14:23:47.760Z,96779.00
2022-07-26T14:26:16.033Z,96779.06
2022-07-26T14:28:46.016Z,96787.03
2022-07-26T14:31:14.394Z,96774.50
2022-07-26T14:33:42.753Z,96781.47
2022-07-26T14:36:13.432Z,96760.41
2022-07-26T14:38:42.283Z,96767.28
2022-07-26T14:41:10.756Z,96766.78
2022-07-26T14:43:39.570Z,96776.34
2022-07-26T14:46:25.847Z,96769.41
2022-07-26T14:49:12.683Z,96779.06
2022-07-26T14:51:51.660Z,96776.56
2022-07-26T14:54:34.164Z,96784.97
2022-07-26T15:05:57.709Z,96776.06
2022-07-26T15:17:44.880Z,96763.56
2022-07-26T15:20:28.920Z,96759.69
2022-07-26T15:26:06.963Z,96770.06
2022-07-26T15:34:58.679Z,96773.25
2022-07-26T15:40:49.862Z,96775.81
2022-07-26T15:43:44.194Z,96774.78
2022-07-26T15:46:20.013Z,96766.41
2022-07-26T15:48:50.355Z,96768.09
2022-07-26T15:51:18.908Z,96772.78
2022-07-26T15:53:48.760Z,96772.91
2022-07-26T15:56:17.409Z,96774.97
2022-07-26T15:58:45.942Z,96774.16
2022-07-26T16:01:17.413Z,96772.69
2022-07-26T16:03:48.218Z,96767.22
2022-07-26T16:06:27.959Z,96765.00
2022-07-26T16:09:16.513Z,96767.16
2022-07-26T16:11:46.903Z,96767.44
2022-07-26T16:14:15.888Z,96772.50
2022-07-26T16:16:46.320Z,96778.94
2022-07-26T16:19:17.043Z,96767.56
2022-07-26T16:21:45.476Z,96770.81
2022-07-26T16:24:15.331Z,96769.56
2022-07-26T16:26:44.919Z,96774.78
2022-07-26T16:29:15.891Z,96770.13
2022-07-26T16:31:44.436Z,96769.53
2022-07-26T16:34:13.105Z,96765.53
2022-07-26T16:36:41.617Z,96768.56
2022-07-26T16:39:10.238Z,96770.34
2022-07-26T16:41:39.997Z,96768.19
2022-07-26T16:44:08.431Z,96776.75
2022-07-26T16:46:38.890Z,96773.88
2022-07-26T16:49:11.650Z,96779.66
2022-07-26T16:51:40.644Z,96778.09
2022-07-26T16:54:09.013Z,96778.63
2022-07-26T16:56:44.086Z,96785.13
2022-07-26T16:59:12.903Z,96781.63
2022-07-26T17:01:41.763Z,96785.00
2022-07-26T17:04:10.420Z,96782.75
2022-07-26T17:06:38.995Z,96780.03
2022-07-26T17:09:15.101Z,96787.94
2022-07-26T17:11:46.939Z,96787.09
2022-07-26T17:14:16.495Z,96785.66
2022-07-26T17:16:45.082Z,96784.63
2022-07-26T17:19:16.672Z,96784.69
2022-07-26T17:21:45.377Z,96787.13
2022-07-26T17:24:13.885Z,96792.03
2022-07-26T17:26:43.964Z,96781.03
2022-07-26T17:29:14.049Z,96789.94
2022-07-26T17:31:44.953Z,96781.56
2022-07-26T17:34:13.539Z,96788.66
2022-07-26T17:36:43.062Z,96785.09
2022-07-26T17:39:17.899Z,96778.13
2022-07-26T17:41:49.402Z,96788.38
2022-07-26T17:44:22.688Z,96789.22
2022-07-26T17:46:51.654Z,96791.63
2022-07-26T17:49:28.316Z,96793.56
2022-07-26T17:52:01.791Z,96795.19
2022-07-26T17:54:33.492Z,96790.84
2022-07-26T17:57:02.172Z,96796.28
2022-07-26T17:59:32.076Z,96798.19
2022-07-26T18:02:00.566Z,96802.53
2022-07-26T18:04:29.145Z,96802.53
2022-07-26T18:06:57.563Z,96798.22
2022-07-26T18:09:26.023Z,96789.88
2022-07-26T18:11:57.674Z,96793.66
2022-07-26T18:14:26.224Z,96790.16
2022-07-26T18:16:57.112Z,96799.06
2022-07-26T18:19:27.532Z,96797.75
2022-07-26T18:22:02.886Z,96802.38
2022-07-26T18:24:37.421Z,96799.94
2022-07-26T18:27:06.339Z,96810.44
2022-07-26T18:29:34.914Z,96806.41
2022-07-26T18:32:04.802Z,96804.81
2022-07-26T18:34:35.643Z,96800.50
2022-07-26T18:37:05.352Z,96804.84
2022-07-26T18:39:34.000Z,96804.28
2022-07-26T18:42:02.623Z,96802.38
2022-07-26T18:44:31.075Z,96813.44
2022-07-26T18:46:59.506Z,96817.19
2022-07-26T18:49:30.791Z,96816.94
2022-07-26T18:52:05.840Z,96822.56
2022-07-26T18:54:37.103Z,96824.16
2022-07-26T18:57:05.899Z,96831.19
2022-07-26T18:59:34.340Z,96833.88
2022-07-26T19:02:02.775Z,96830.66
2022-07-26T19:04:32.813Z,96835.75
2022-07-26T19:07:03.163Z,96837.34
2022-07-26T19:09:31.672Z,96837.34
2022-07-26T19:12:08.306Z,96843.47
2022-07-26T19:14:36.819Z,96835.88
2022-07-26T19:17:06.144Z,96840.94
2022-07-26T19:19:39.002Z,96852.22
2022-07-26T19:22:07.497Z,96856.41
2022-07-26T19:24:36.246Z,96857.25
2022-07-26T19:27:07.976Z,96859.91
2022-07-26T19:29:36.505Z,96866.53
2022-07-26T19:32:05.388Z,96881.75
2022-07-26T19:34:37.040Z,96876.84
2022-07-26T19:37:08.489Z,96880.06
2022-07-26T19:39:36.983Z,96879.75
2022-07-26T19:42:05.499Z,96883.19
2022-07-26T19:44:34.163Z,96879.91
2022-07-26T19:47:02.675Z,96885.47
2022-07-26T19:49:37.079Z,96884.84
2022-07-26T19:52:11.904Z,96877.53
2022-07-26T19:54:43.214Z,96888.97
2022-07-26T19:57:13.478Z,96891.47
2022-07-26T19:59:42.018Z,96891.97
2022-07-26T20:02:14.088Z,96891.28
2022-07-26T20:04:46.088Z,96895.28
2022-07-26T20:07:19.852Z,96902.78
2022-07-26T20:09:51.362Z,96892.59
2022-07-26T20:12:22.840Z,96899.63
2022-07-26T20:14:54.055Z,96893.91
2022-07-26T20:17:23.665Z,96900.22
2022-07-26T20:19:52.233Z,96899.22
2022-07-26T20:22:25.128Z,96895.50
2022-07-26T20:24:56.451Z,96897.03
2022-07-26T20:27:25.076Z,96893.88
2022-07-26T20:29:58.815Z,96903.94
2022-07-26T20:32:34.144Z,96903.13
2022-07-26T20:35:02.575Z,96906.94
2022-07-26T20:37:32.517Z,96905.97
2022-07-26T20:40:00.970Z,96908.72
2022-07-26T20:42:29.438Z,96908.31
2022-07-26T20:45:01.244Z,96912.97
2022-07-26T20:47:32.511Z,96917.31
2022-07-26T20:50:03.403Z,96920.09
2022-07-26T20:52:36.343Z,96918.38
2022-07-26T20:55:05.444Z,96918.44
2022-07-26T20:57:33.778Z,96921.59
2022-07-26T21:00:02.053Z,96916.66
2022-07-26T21:02:30.455Z,96914.59
2022-07-26T21:04:58.998Z,96915.19
2022-07-26T21:07:53.948Z,96919.81
2022-07-26T21:10:17.923Z,96912.16
2022-07-26T21:12:46.928Z,96911.50
2022-07-26T21:15:15.234Z,96917.34
2022-07-26T21:17:43.643Z,96916.91
2022-07-26T21:20:12.351Z,96921.41
2022-07-26T21:22:40.742Z,96916.88
2022-07-26T21:25:09.944Z,96917.81
2022-07-26T21:27:39.784Z,96913.84
2022-07-26T21:30:09.594Z,96924.47
2022-07-26T21:32:38.060Z,96921.13
2022-07-26T21:35:07.351Z,96924.75
2022-07-26T21:37:38.261Z,96927.66
2022-07-26T21:40:07.991Z,96929.44
2022-07-26T21:42:36.611Z,96927.91
2022-07-26T21:45:07.803Z,96934.78
2022-07-26T21:47:36.451Z,96933.84
2022-07-26T21:50:05.172Z,96930.25
2022-07-26T21:52:33.722Z,96933.75
2022-07-26T21:55:02.153Z,96934.13
2022-07-26T21:57:30.623Z,96945.53
2022-07-26T21:59:59.023Z,96947.50
2022-07-26T22:02:28.874Z,96949.59
2022-07-26T22:04:57.926Z,96965.78
2022-07-26T22:07:26.265Z,96944.59
2022-07-26T22:09:54.652Z,96954.59
2022-07-26T22:12:23.031Z,96958.31
2022-07-26T22:14:51.473Z,96957.06
2022-07-26T22:17:19.835Z,96950.53
2022-07-26T22:19:49.642Z,96949.72
2022-07-26T22:22:18.034Z,96957.03
2022-07-26T22:24:46.474Z,96949.25
2022-07-26T22:27:15.310Z,96956.34
2022-07-26T22:29:44.114Z,96948.72
2022-07-26T22:32:12.650Z,96955.72
2022-07-26T22:34:41.094Z,96949.69
2022-07-26T22:37:10.978Z,96949.78
2022-07-26T22:39:40.302Z,96952.81
2022-07-26T22:42:16.317Z,96953.53
2022-07-26T22:44:45.076Z,96952.22
2022-07-26T22:47:13.362Z,96955.50
2022-07-26T22:49:41.642Z,96962.94
2022-07-26T22:52:11.338Z,96956.88
2022-07-26T22:54:40.166Z,96957.22
2022-07-26T22:57:08.473Z,96967.00
2022-07-26T22:59:37.388Z,96970.50
2022-07-26T23:02:05.773Z,96966.28
2022-07-26T23:04:34.045Z,96964.88
2022-07-26T23:07:02.519Z,96964.75
2022-07-26T23:09:34.256Z,96965.09
2022-07-26T23:12:02.536Z,96963.00
2022-07-26T23:14:30.798Z,96958.56
2022-07-26T23:16:59.069Z,96956.00
2022-07-26T23:19:27.595Z,96950.22
2022-07-26T23:21:55.904Z,96950.44
2022-07-26T23:24:24.151Z,96946.47
2022-07-26T23:26:53.854Z,96946.13
2022-07-26T23:29:22.101Z,96943.66
2022-07-26T23:31:50.379Z,96949.13
2022-07-26T23:34:18.725Z,96946.47
2022-07-26T23:36:46.958Z,96939.84
2022-07-26T23:39:15.279Z,96941.00
2022-07-26T23:41:43.743Z,96937.06
2022-07-26T23:44:13.468Z,96945.19
2022-07-26T23:46:41.854Z,96943.94
2022-07-26T23:49:10.578Z,96949.50
2022-07-26T23:51:39.340Z,96942.63
2022-07-26T23:54:07.904Z,96945.81
2022-07-26T23:56:37.586Z,96950.44
2022-07-26T23:59:06.135Z,96946.94
